Time;durP1;ratioP1;P1;durP2;ratioP2;P2;SDS_P1;SDS_P2;PMS_P1;PMS_P2;Temp;Humidity;BMP_temperature;BMP_pressure;BME280_temperature;BME280_humidity;BME280_pressure;Samples;Min_cycle;Max_cycle;Signal;HPM_P1;HPM_P2
2021/03/19 00:00:09;;;;;;;9.82;5.07;;;;;;;2.36;84.28;100186.78;5115177;28;20118;-74
2021/03/19 00:02:34;;;;;;;8.23;4.57;;;;;;;2.51;84.98;100186.38;5096570;28;20036;-73
2021/03/19 00:05:00;;;;;;;10.48;5.00;;;;;;;2.26;85.08;100153.75;5114967;28;20035;-73
2021/03/19 00:07:25;;;;;;;8.45;4.93;;;;;;;2.23;84.96;100159.09;5097217;28;20076;-73
2021/03/19 00:09:53;;;;;;;11.55;5.00;;;;;;;2.41;84.49;100181.38;5114541;28;20035;-76
2021/03/19 00:12:21;;;;;;;9.82;5.15;;;;;;;2.37;84.58;100182.38;5110439;28;20111;-75
2021/03/19 00:14:46;;;;;;;9.50;5.18;;;;;;;2.34;83.97;100166.69;5114626;28;20405;-75
2021/03/19 00:17:12;;;;;;;9.82;5.35;;;;;;;2.29;83.81;100151.88;5114595;28;20053;-74
2021/03/19 00:19:37;;;;;;;11.05;4.88;;;;;;;2.39;83.36;100175.31;5114537;28;20451;-73
2021/03/19 00:22:03;;;;;;;7.88;4.78;;;;;;;2.42;84.19;100169.97;5114684;28;20119;-73
2021/03/19 00:24:28;;;;;;;10.95;4.72;;;;;;;2.01;83.91;100109.66;5114493;28;20057;-74
2021/03/19 00:26:54;;;;;;;9.52;4.88;;;;;;;2.40;83.70;100167.34;5113550;28;20769;-74
2021/03/19 00:29:19;;;;;;;8.13;5.20;;;;;;;2.30;83.76;100147.47;5114862;28;20077;-73
2021/03/19 00:31:45;;;;;;;8.18;4.85;;;;;;;2.45;83.09;100156.72;5114261;28;20073;-74
2021/03/19 00:34:11;;;;;;;8.07;4.85;;;;;;;2.29;83.55;100148.38;5114641;28;20122;-73
2021/03/19 00:36:36;;;;;;;11.18;5.00;;;;;;;2.48;83.64;100169.78;5095876;28;20043;-77
2021/03/19 00:39:03;;;;;;;8.32;5.13;;;;;;;2.51;83.65;100174.94;5114579;28;20036;-69
2021/03/19 00:41:28;;;;;;;9.00;5.45;;;;;;;2.49;82.85;100172.38;5114503;28;20039;-71
2021/03/19 00:43:54;;;;;;;9.95;5.97;;;;;;;2.53;83.14;100173.16;5113924;28;20393;-70
2021/03/19 00:46:19;;;;;;;9.90;5.85;;;;;;;2.00;83.46;100100.06;5114529;28;20028;-70
2021/03/19 00:48:45;;;;;;;10.48;5.80;;;;;;;2.29;84.40;100143.13;5113866;28;20031;-70
2021/03/19 00:51:12;;;;;;;9.32;5.25;;;;;;;2.19;83.65;100129.34;5114045;28;20080;-69
2021/03/19 00:53:38;;;;;;;9.68;5.68;;;;;;;2.44;83.58;100153.22;5113716;28;20036;-71
2021/03/19 00:56:04;;;;;;;10.35;6.00;;;;;;;2.38;83.04;100163.91;5095657;28;20032;-70
2021/03/19 00:58:29;;;;;;;9.57;5.38;;;;;;;2.26;82.62;100127.41;5113947;28;20051;-70
2021/03/19 01:00:54;;;;;;;7.78;5.50;;;;;;;1.91;82.33;100087.16;5095500;28;20081;-70
2021/03/19 01:03:20;;;;;;;10.88;5.63;;;;;;;2.29;82.27;100143.13;5113983;28;20043;-70
2021/03/19 01:05:46;;;;;;;10.45;5.57;;;;;;;2.23;82.78;100154.69;5113623;28;20065;-70
2021/03/19 01:08:13;;;;;;;11.35;5.82;;;;;;;2.30;83.61;100150.97;5113971;28;20031;-69
2021/03/19 01:10:51;;;;;;;10.32;5.72;;;;;;;2.36;83.50;100149.94;5095329;28;20040;-71
2021/03/19 01:13:16;;;;;;;9.75;5.45;;;;;;;2.18;83.72;100122.38;5114070;28;20364;-70
2021/03/19 01:15:43;;;;;;;11.25;6.20;;;;;;;2.39;83.59;100152.47;5113640;28;20032;-71
2021/03/19 01:18:11;;;;;;;14.35;6.45;;;;;;;2.36;83.32;100151.72;5113543;28;20408;-69
2021/03/19 01:20:40;;;;;;;11.40;5.78;;;;;;;2.16;83.89;100153.13;5113536;28;20038;-71
2021/03/19 01:23:07;;;;;;;12.48;5.95;;;;;;;2.07;83.91;100132.31;5095581;28;20118;-70
2021/03/19 01:25:32;;;;;;;11.40;5.78;;;;;;;2.22;84.19;100136.28;5095863;28;20046;-71
2021/03/19 01:27:58;;;;;;;11.35;5.97;;;;;;;2.25;84.15;100144.97;5078313;28;20821;-70
2021/03/19 01:30:28;;;;;;;12.10;5.75;;;;;;;2.17;84.48;100143.47;5113913;28;20043;-69
2021/03/19 01:32:53;;;;;;;8.20;5.45;;;;;;;2.29;84.17;100154.50;5113143;28;20541;-71
2021/03/19 01:35:22;;;;;;;13.10;6.22;;;;;;;2.28;83.78;100142.25;5095071;28;20118;-70
2021/03/19 01:37:48;;;;;;;8.77;5.28;;;;;;;2.24;83.71;100145.88;5094769;28;20035;-70
2021/03/19 01:40:15;;;;;;;10.00;5.18;;;;;;;2.23;83.71;100132.78;5094778;28;20371;-70
2021/03/19 01:43:05;;;;;;;11.48;5.70;;;;;;;2.28;83.73;100141.38;5095024;28;20103;-76
2021/03/19 01:46:04;;;;;;;10.50;5.65;;;;;;;2.30;82.94;100134.31;5113202;28;20095;-70
2021/03/19 01:49:07;;;;;;;10.20;5.90;;;;;;;2.34;82.51;100137.75;5113441;28;20037;-70
2021/03/19 01:52:10;;;;;;;11.90;6.35;;;;;;;2.32;82.91;100142.16;5113282;28;20579;-70
2021/03/19 01:55:13;;;;;;;11.77;6.30;;;;;;;2.42;83.00;100139.25;5113438;28;20370;-71
2021/03/19 01:58:16;;;;;;;9.95;5.95;;;;;;;2.10;83.69;100142.75;5113423;28;20031;-70
2021/03/19 02:01:19;;;;;;;11.30;6.15;;;;;;;2.02;83.62;100150.00;5113045;28;20031;-75
2021/03/19 02:04:21;;;;;;;11.93;6.90;;;;;;;1.91;84.39;100147.66;5112951;28;20060;-71
2021/03/19 02:07:24;;;;;;;9.93;6.05;;;;;;;1.97;83.68;100141.38;5112706;28;20119;-69
2021/03/19 02:10:27;;;;;;;9.60;6.38;;;;;;;1.85;84.79;100152.22;5112971;28;20464;-71
2021/03/19 02:13:29;;;;;;;10.80;6.53;;;;;;;1.84;84.94;100146.09;5112630;28;20031;-71
2021/03/19 02:16:32;;;;;;;12.80;6.63;;;;;;;1.78;85.41;100143.63;5112589;28;20036;-70
2021/03/19 02:19:35;;;;;;;10.10;6.40;;;;;;;1.88;85.31;100149.50;5112647;28;20032;-70
2021/03/19 02:22:37;;;;;;;12.45;6.97;;;;;;;2.04;84.55;100142.09;5094949;28;20477;-71
2021/03/19 02:25:40;;;;;;;11.40;7.13;;;;;;;1.93;84.98;100144.97;5112696;28;20031;-72
2021/03/19 02:28:43;;;;;;;11.27;7.65;;;;;;;2.05;84.38;100149.94;5094438;28;20088;-71
2021/03/19 02:31:14;;;;;;;11.52;6.82;;;;;;;1.93;85.10;100135.34;5113142;28;20055;-71
2021/03/19 02:33:59;;;;;;;11.65;6.97;;;;;;;2.00;84.87;100146.53;5112859;28;20028;-72
2021/03/19 02:36:28;;;;;;;12.57;7.20;;;;;;;2.09;84.82;100148.06;5113129;28;20114;-71
2021/03/19 02:38:54;;;;;;;12.35;7.90;;;;;;;2.04;84.91;100137.69;5112733;28;20023;-71
2021/03/19 02:41:20;;;;;;;13.93;7.63;;;;;;;2.12;84.38;100140.06;5078053;28;20034;-70
2021/03/19 02:43:46;;;;;;;11.70;7.43;;;;;;;2.15;83.92;100137.38;5112480;28;20386;-70
2021/03/19 02:46:12;;;;;;;13.00;7.80;;;;;;;2.22;84.61;100142.44;5112813;28;20036;-70
2021/03/19 02:48:38;;;;;;;13.48;7.97;;;;;;;2.22;83.74;100141.56;5112728;28;20035;-69
2021/03/19 02:51:05;;;;;;;11.43;7.82;;;;;;;2.05;83.68;100113.09;5115347;28;20086;-70
2021/03/19 02:53:32;;;;;;;14.25;7.97;;;;;;;2.15;84.45;100135.63;5116447;28;20036;-70
2021/03/19 02:56:00;;;;;;;13.27;8.18;;;;;;;2.19;84.17;100141.66;5116171;28;20420;-71
2021/03/19 02:58:26;;;;;;;14.60;8.20;;;;;;;2.26;84.37;100144.06;5116268;28;20038;-71
2021/03/19 03:00:52;;;;;;;12.07;8.10;;;;;;;2.23;84.14;100141.53;5097577;28;20027;-71
2021/03/19 03:03:18;;;;;;;12.93;8.50;;;;;;;1.94;84.53;100096.75;5116323;28;20115;-71
2021/03/19 03:05:44;;;;;;;14.90;8.90;;;;;;;1.97;84.89;100115.06;5098294;28;20047;-71
2021/03/19 03:08:12;;;;;;;16.77;9.45;;;;;;;2.22;84.17;100150.34;5115866;28;20462;-71
2021/03/19 03:10:38;;;;;;;13.90;9.30;;;;;;;2.08;85.11;100148.97;5116353;28;20413;-70
2021/03/19 03:13:05;;;;;;;14.68;9.30;;;;;;;1.94;85.42;100128.31;5097690;28;20035;-70
2021/03/19 03:15:31;;;;;;;14.88;9.23;;;;;;;2.04;84.54;100116.63;5116283;28;20036;-70
2021/03/19 03:17:57;;;;;;;13.77;9.00;;;;;;;2.16;84.07;100142.59;5115911;28;20047;-71
2021/03/19 03:20:34;;;;;;;14.80;9.23;;;;;;;2.13;84.40;100141.84;5097714;28;20039;-71
2021/03/19 03:23:00;;;;;;;16.58;9.80;;;;;;;2.18;84.32;100145.19;5115864;28;20067;-70
2021/03/19 03:25:25;;;;;;;15.65;10.35;;;;;;;2.18;84.42;100146.03;5115861;28;20496;-72
2021/03/19 03:27:53;;;;;;;14.13;9.52;;;;;;;2.15;84.22;100119.81;5115328;28;20048;-71
2021/03/19 03:30:45;;;;;;;15.55;10.48;;;;;;;2.16;84.10;100150.50;5116358;28;20047;-71
2021/03/19 03:33:11;;;;;;;16.50;10.25;;;;;;;2.10;83.85;100121.72;5101904;28;20565;-74
2021/03/19 03:35:38;;;;;;;17.42;9.93;;;;;;;2.03;84.60;100143.84;5097444;28;20073;-72
2021/03/19 03:38:06;;;;;;;16.67;9.85;;;;;;;1.87;84.62;100124.13;5115592;28;20067;-73
2021/03/19 03:40:39;;;;;;;18.10;10.18;;;;;;;1.91;84.96;100145.03;5115381;28;20027;-72
2021/03/19 03:43:05;;;;;;;16.20;9.73;;;;;;;1.79;85.61;100120.81;5115276;28;20035;-73
2021/03/19 03:45:31;;;;;;;15.05;9.68;;;;;;;1.90;84.47;100118.75;5097299;28;20453;-71
2021/03/19 03:47:57;;;;;;;17.85;9.32;;;;;;;2.13;83.55;100140.06;5080023;28;20067;-72
2021/03/19 03:50:27;;;;;;;14.02;9.73;;;;;;;2.25;83.18;100141.50;5097025;28;20031;-71
2021/03/19 03:52:53;;;;;;;14.77;9.68;;;;;;;2.15;83.32;100148.78;5115189;28;20028;-72
2021/03/19 03:55:20;;;;;;;13.98;9.57;;;;;;;1.59;84.16;100081.91;5097411;28;20076;-72
2021/03/19 03:57:45;;;;;;;15.57;9.23;;;;;;;1.92;85.03;100148.50;5115431;28;20058;-70
2021/03/19 04:00:14;;;;;;;16.25;9.30;;;;;;;1.83;84.70;100125.94;5096711;28;20027;-71
2021/03/19 04:02:40;;;;;;;15.40;9.63;;;;;;;1.94;84.29;100149.34;5114386;28;20031;-71
2021/03/19 04:05:08;;;;;;;15.45;9.75;;;;;;;1.71;85.53;100124.50;5115080;28;20043;-71
2021/03/19 04:07:33;;;;;;;16.80;10.35;;;;;;;1.82;85.80;100149.66;5114936;28;20046;-71
2021/03/19 04:09:59;;;;;;;15.82;10.63;;;;;;;2.01;85.57;100158.78;5096658;28;20039;-71
2021/03/19 04:12:25;;;;;;;17.55;10.43;;;;;;;2.08;85.38;100152.47;5096822;28;20367;-71
2021/03/19 04:14:51;;;;;;;18.90;10.88;;;;;;;1.90;85.03;100124.03;5114369;28;20106;-75
2021/03/19 04:17:31;;;;;;;17.70;10.82;;;;;;;1.92;85.90;100138.00;5114923;28;20151;-69
2021/03/19 04:19:58;;;;;;;18.60;11.52;;;;;;;1.64;85.54;100091.41;5114639;28;20078;-70
2021/03/19 04:22:24;;;;;;;18.20;11.02;;;;;;;2.15;85.33;100147.91;5114746;28;20047;-70
2021/03/19 04:24:52;;;;;;;17.52;11.05;;;;;;;2.10;85.13;100155.91;5114687;28;20114;-69
2021/03/19 04:27:20;;;;;;;17.48;11.10;;;;;;;1.83;84.97;100091.75;5114796;28;20397;-69
2021/03/19 04:29:46;;;;;;;15.95;10.75;;;;;;;2.16;84.84;100152.25;5114562;28;20034;-69
2021/03/19 04:32:13;;;;;;;18.50;11.40;;;;;;;2.07;84.47;100116.53;5096096;28;20518;-70
2021/03/19 04:34:38;;;;;;;16.85;11.02;;;;;;;2.16;84.24;100150.50;5096233;28;20428;-70
2021/03/19 04:37:05;;;;;;;18.95;10.55;;;;;;;2.13;84.74;100155.84;5079090;28;20034;-70
2021/03/19 04:39:32;;;;;;;18.30;10.82;;;;;;;1.92;83.45;100091.50;5114525;28;20507;-70
2021/03/19 04:42:00;;;;;;;18.85;11.43;;;;;;;2.18;83.67;100156.56;5114049;28;20036;-71
2021/03/19 04:44:29;;;;;;;16.13;11.05;;;;;;;2.24;83.76;100156.41;5114726;28;20036;-71
2021/03/19 04:46:55;;;;;;;17.67;11.30;;;;;;;1.98;83.92;100122.06;5113942;28;20040;-70
2021/03/19 04:49:21;;;;;;;18.65;11.43;;;;;;;2.04;83.94;100136.81;5114098;28;20031;-69
2021/03/19 04:51:48;;;;;;;16.77;11.80;;;;;;;2.27;83.52;100161.59;5079198;28;20028;-70
2021/03/19 04:54:14;;;;;;;18.40;11.45;;;;;;;2.23;83.58;100157.31;5114050;28;20437;-72
2021/03/19 04:56:39;;;;;;;20.17;12.45;;;;;;;2.15;84.44;100163.69;5114231;28;20031;-72
2021/03/19 04:59:06;;;;;;;20.95;12.60;;;;;;;2.19;84.16;100167.97;5095616;28;20081;-73
2021/03/19 05:01:31;;;;;;;19.83;12.07;;;;;;;2.02;84.48;100155.25;5095659;28;20035;-71
2021/03/19 05:03:57;;;;;;;17.45;11.57;;;;;;;1.83;85.44;100169.78;5113866;28;20031;-73
2021/03/19 05:06:22;;;;;;;19.00;11.77;;;;;;;1.90;85.04;100164.34;5114091;28;20122;-71
2021/03/19 05:08:48;;;;;;;20.90;11.98;;;;;;;1.73;85.50;100133.22;5095844;28;20034;-72
2021/03/19 05:11:15;;;;;;;16.92;10.15;;;;;;;2.03;84.37;100162.28;5095442;28;20075;-72
2021/03/19 05:13:42;;;;;;;19.30;10.82;;;;;;;1.93;84.66;100161.66;5113328;28;20039;-76
2021/03/19 05:16:09;;;;;;;17.13;10.60;;;;;;;1.69;84.42;100139.47;5113334;28;20401;-73
2021/03/19 05:18:35;;;;;;;17.52;10.55;;;;;;;1.97;83.75;100167.69;5114220;28;20085;-73
2021/03/19 05:21:00;;;;;;;13.20;7.85;;;;;;;1.92;81.50;100166.94;5113545;28;20039;-71
2021/03/19 05:23:32;;;;;;;14.13;8.50;;;;;;;1.84;82.41;100142.63;5095499;28;20410;-71
2021/03/19 05:25:59;;;;;;;13.60;7.93;;;;;;;1.88;82.84;100157.41;5113422;28;20035;-72
2021/03/19 05:28:25;;;;;;;11.15;6.80;;;;;;;1.87;81.35;100153.03;5095382;28;20054;-73
2021/03/19 05:30:53;;;;;;;14.88;7.25;;;;;;;1.90;81.14;100145.06;5095021;28;20126;-74
2021/03/19 05:33:21;;;;;;;14.10;7.15;;;;;;;2.05;81.08;100159.59;5113253;28;20115;-75
2021/03/19 05:35:47;;;;;;;12.07;7.13;;;;;;;2.12;80.97;100161.13;5113810;28;20390;-75
2021/03/19 05:38:13;;;;;;;12.77;7.80;;;;;;;1.95;80.25;100143.19;5112863;28;20027;-72
2021/03/19 05:40:45;;;;;;;12.32;7.05;;;;;;;2.12;78.63;100172.53;5095150;28;20036;-71
2021/03/19 05:43:23;;;;;;;12.10;6.72;;;;;;;1.98;78.08;100174.66;5112968;28;20087;-72
2021/03/19 05:45:54;;;;;;;11.57;6.55;;;;;;;1.96;78.38;100172.09;5113268;28;20379;-71
2021/03/19 05:48:21;;;;;;;13.20;6.95;;;;;;;1.94;78.41;100170.41;5112963;28;20039;-70
2021/03/19 05:50:47;;;;;;;11.57;7.15;;;;;;;1.87;78.92;100172.31;5077959;28;20036;-71
2021/03/19 05:53:15;;;;;;;11.77;6.90;;;;;;;1.96;78.00;100168.59;5113001;28;20035;-72
2021/03/19 05:55:41;;;;;;;13.98;7.32;;;;;;;1.85;79.56;100176.75;5113029;28;20485;-71
2021/03/19 05:58:17;;;;;;;11.57;7.15;;;;;;;1.86;78.47;100169.72;5112785;28;20039;-73
2021/03/19 06:00:42;;;;;;;13.52;7.55;;;;;;;1.95;78.46;100180.03;5113293;28;20035;-74
2021/03/19 06:03:08;;;;;;;15.93;8.23;;;;;;;2.03;78.65;100172.78;5112730;28;20492;-73
2021/03/19 06:06:04;;;;;;;13.75;7.97;;;;;;;2.04;78.73;100181.53;5095079;28;20054;-73
2021/03/19 06:08:40;;;;;;;12.65;7.82;;;;;;;2.04;80.72;100185.03;5113134;28;20039;-74
2021/03/19 06:11:13;;;;;;;13.27;7.82;;;;;;;1.80;79.65;100154.97;5112914;28;20074;-74
2021/03/19 06:13:54;;;;;;;13.50;8.43;;;;;;;2.16;78.25;100184.72;5113217;28;20044;-74
2021/03/19 06:16:34;;;;;;;14.25;8.63;;;;;;;2.14;78.28;100178.63;5112394;28;20173;-74
2021/03/19 06:19:05;;;;;;;16.90;9.27;;;;;;;2.09;78.66;100169.13;5112958;28;20031;-78
2021/03/19 06:21:35;;;;;;;15.45;9.27;;;;;;;1.94;77.75;100123.06;5112825;28;20466;-74
2021/03/19 06:24:23;;;;;;;15.05;9.40;;;;;;;1.96;78.55;100102.81;5112728;28;20032;-78
2021/03/19 06:26:51;;;;;;;16.38;8.52;;;;;;;2.45;75.82;100165.47;5116763;28;20027;-70
2021/03/19 06:29:19;;;;;;;15.65;8.48;;;;;;;2.56;75.97;100184.47;5098087;28;20024;-71
2021/03/19 06:32:09;;;;;;;13.70;8.63;;;;;;;2.64;76.83;100193.91;5116983;28;20024;-71
2021/03/19 06:34:58;;;;;;;17.15;8.82;;;;;;;2.38;76.54;100169.19;5116736;28;20053;-72
2021/03/19 06:37:31;;;;;;;14.90;8.70;;;;;;;2.61;76.18;100186.97;5116264;28;20053;-72
2021/03/19 06:39:58;;;;;;;12.90;8.10;;;;;;;2.68;75.43;100187.66;5116763;28;20370;-71
2021/03/19 06:42:24;;;;;;;13.05;8.35;;;;;;;2.80;75.17;100193.44;5116227;28;20513;-70
2021/03/19 06:45:08;;;;;;;13.60;7.90;;;;;;;2.73;75.32;100178.72;5116301;28;20148;-74
2021/03/19 06:47:41;;;;;;;14.93;8.27;;;;;;;2.98;74.95;100206.94;5116322;28;20028;-74
2021/03/19 06:50:30;;;;;;;13.90;7.75;;;;;;;2.80;75.53;100182.91;5097669;28;20097;-71
2021/03/19 06:53:14;;;;;;;16.60;8.10;;;;;;;3.10;74.69;100201.34;5098329;28;20457;-72
2021/03/19 06:55:43;;;;;;;13.85;7.72;;;;;;;3.28;71.07;100205.16;5116134;28;20028;-74
2021/03/19 06:58:08;;;;;;;12.82;7.65;;;;;;;3.44;70.95;100202.00;5116007;28;20027;-73
2021/03/19 07:00:42;;;;;;;11.93;8.02;;;;;;;3.53;69.19;100187.66;5116002;28;20119;-74
2021/03/19 07:03:40;;;;;;;15.13;8.05;;;;;;;3.88;70.21;100212.03;5115930;28;20137;-75
2021/03/19 07:06:33;;;;;;;17.23;7.72;;;;;;;4.19;67.95;100206.56;5025337;28;20046;-75
2021/03/19 07:09:10;;;;;;;13.50;7.65;;;;;;;4.17;65.28;100213.69;5116041;28;20031;-74
2021/03/19 07:11:45;;;;;;;11.50;7.05;;;;;;;4.25;65.84;100211.66;5116103;28;20386;-74
2021/03/19 07:14:28;;;;;;;12.20;7.32;;;;;;;4.32;65.42;100218.41;5115931;28;20126;-74
2021/03/19 07:16:54;;;;;;;12.38;6.90;;;;;;;4.41;63.94;100218.09;5116032;28;20052;-75
2021/03/19 07:19:37;;;;;;;12.05;7.70;;;;;;;4.42;64.17;100214.53;5115408;28;20039;-75
2021/03/19 07:22:14;;;;;;;13.07;7.63;;;;;;;4.36;63.35;100220.03;5116012;28;20326;-75
2021/03/19 07:25:01;;;;;;;14.10;7.57;;;;;;;4.47;62.70;100217.88;5115926;28;20027;-72
2021/03/19 07:27:51;;;;;;;12.30;7.57;;;;;;;4.60;61.00;100215.66;5115579;28;20036;-75
2021/03/19 07:30:34;;;;;;;15.38;7.30;;;;;;;4.58;61.54;100215.72;5115705;28;20055;-74
2021/03/19 07:33:30;;;;;;;17.00;7.63;;;;;;;4.79;62.73;100214.06;5115736;28;20035;-71
2021/03/19 07:36:14;;;;;;;14.82;8.23;;;;;;;4.43;64.96;100225.94;5115580;28;20514;-76
2021/03/19 07:38:58;;;;;;;;;;;;;;;4.21;65.33;100223.22;5116079;28;20027;-74
2021/03/19 07:41:44;;;;;;;13.63;8.32;;;;;;;4.02;65.56;100213.28;5115141;28;19907;-72
2021/03/19 07:44:57;;;;;;;13.07;8.10;;;;;;;4.18;65.53;100231.25;5115442;28;20428;-77
2021/03/19 07:47:42;;;;;;;13.32;7.97;;;;;;;4.17;65.94;100224.25;5069508;28;20036;-71
2021/03/19 07:50:32;;;;;;;16.80;8.20;;;;;;;4.17;64.28;100225.09;5115307;28;20082;-71
2021/03/19 07:53:35;;;;;;;13.18;7.88;;;;;;;3.98;65.91;100229.28;5115862;28;20107;-73
2021/03/19 07:56:12;;;;;;;11.98;7.97;;;;;;;3.96;67.62;100231.97;5115342;28;20032;-73
2021/03/19 07:58:56;;;;;;;16.25;9.38;;;;;;;3.78;67.81;100207.97;5118963;28;20027;-74
2021/03/19 08:01:33;;;;;;;13.45;8.68;;;;;;;3.86;68.16;100234.94;5115151;28;20377;-73
2021/03/19 08:04:12;;;;;;;15.85;8.65;;;;;;;3.60;67.46;100173.38;5115219;28;20040;-71
2021/03/19 08:06:45;;;;;;;14.15;8.65;;;;;;;4.01;67.01;100235.31;5115195;28;20389;-70
2021/03/19 08:09:36;;;;;;;16.77;8.97;;;;;;;4.14;66.88;100230.47;5114672;28;20032;-71
2021/03/19 08:12:12;;;;;;;17.42;8.43;;;;;;;4.22;69.06;100230.22;5109864;28;20034;-70
2021/03/19 08:14:50;;;;;;;17.10;8.75;;;;;;;4.37;67.74;100224.41;5115203;28;20046;-70
2021/03/19 08:17:30;;;;;;;15.43;8.00;;;;;;;4.48;66.69;100214.31;5114432;28;20052;-71
2021/03/19 08:20:34;;;;;;;16.05;8.45;;;;;;;4.79;66.34;100229.91;5114847;28;20031;-75
2021/03/19 08:23:20;;;;;;;16.33;9.65;;;;;;;4.79;66.01;100221.13;5115039;28;20114;-73
2021/03/19 08:25:48;;;;;;;17.55;8.57;;;;;;;4.78;65.26;100206.19;5088888;28;20036;-81
2021/03/19 08:28:19;;;;;;;16.70;9.05;;;;;;;5.09;64.63;100227.03;5111436;28;20031;-77
2021/03/19 08:30:53;;;;;;;18.20;9.02;;;;;;;5.24;63.91;100222.97;5095644;28;20074;-78
2021/03/19 08:34:00;;;;;;;14.57;8.77;;;;;;;5.23;64.26;100230.03;5113950;28;20027;-75
2021/03/19 08:36:41;;;;;;;14.93;8.32;;;;;;;5.22;64.51;100222.16;5112627;28;20036;-73
2021/03/19 08:39:28;;;;;;;15.75;8.18;;;;;;;5.20;63.66;100221.34;5091920;28;20028;-75
2021/03/19 08:42:03;;;;;;;14.10;9.18;;;;;;;4.89;64.20;100214.56;5103823;28;20167;-79
2021/03/19 08:44:34;;;;;;;16.63;8.25;;;;;;;5.01;63.39;100218.53;5114372;28;20390;-73
2021/03/19 08:47:24;;;;;;;14.95;8.32;;;;;;;5.01;65.05;100221.19;5094568;28;20507;-79
2021/03/19 08:49:53;;;;;;;15.02;8.70;;;;;;;4.81;63.62;100190.22;5094957;28;20031;-73
2021/03/19 08:52:40;;;;;;;17.02;8.48;;;;;;;4.83;63.59;100210.41;5113478;28;20473;-79
2021/03/19 08:55:15;;;;;;;13.23;8.05;;;;;;;4.56;64.43;100221.97;5112443;28;20039;-76
2021/03/19 08:57:47;;;;;;;15.15;8.07;;;;;;;4.41;64.01;100207.53;5113186;28;20035;-80
2021/03/19 09:00:34;;;;;;;20.52;8.82;;;;;;;4.47;64.88;100215.25;5113321;28;20052;-75
2021/03/19 09:03:05;;;;;;;15.50;7.78;;;;;;;4.20;64.25;100188.03;5111740;28;20479;-78
2021/03/19 09:06:02;;;;;;;14.40;7.95;;;;;;;4.26;64.91;100202.81;5112877;28;20475;-80
2021/03/19 09:08:49;;;;;;;14.07;8.43;;;;;;;4.31;64.87;100211.41;5112290;28;20035;-75
2021/03/19 09:11:18;;;;;;;14.30;8.13;;;;;;;4.36;64.16;100201.56;5096886;28;20522;-77
2021/03/19 09:14:02;;;;;;;14.30;8.43;;;;;;;4.37;64.00;100210.34;5094048;28;20051;-75
2021/03/19 09:17:09;;;;;;;15.55;8.05;;;;;;;4.44;64.29;100212.72;5090651;28;20414;-75
2021/03/19 09:19:36;;;;;;;13.75;8.23;;;;;;;4.62;63.14;100205.88;5060789;28;20485;-76
2021/03/19 09:22:20;;;;;;;13.68;8.48;;;;;;;4.66;61.50;100177.59;5112928;28;20032;-71
2021/03/19 09:25:14;;;;;;;15.30;8.60;;;;;;;5.06;60.85;100200.72;5112431;28;20482;-71
2021/03/19 09:28:06;;;;;;;13.32;8.27;;;;;;;5.13;60.42;100192.50;5112538;28;20122;-73
2021/03/19 09:30:40;;;;;;;15.45;7.88;;;;;;;5.36;60.21;100194.25;5098205;28;20069;-73
2021/03/19 09:33:11;;;;;;;16.25;8.13;;;;;;;5.44;59.50;100180.72;5112431;28;20449;-75
2021/03/19 09:35:43;;;;;;;15.00;8.65;;;;;;;5.70;58.52;100177.88;5090889;28;20036;-73
2021/03/19 09:38:34;;;;;;;13.48;8.35;;;;;;;5.75;58.26;100165.28;5092639;28;20035;-81
2021/03/19 09:41:04;;;;;;;15.98;8.20;;;;;;;6.29;57.06;100169.19;5091425;28;20058;-75
2021/03/19 09:43:45;;;;;;;13.68;8.32;;;;;;;6.57;56.64;100183.88;5090615;28;20043;-75
2021/03/19 09:46:29;;;;;;;14.93;8.60;;;;;;;6.63;56.34;100158.88;5092494;28;20055;-74
2021/03/19 09:49:14;;;;;;;;;;;;;;;6.71;56.25;100180.59;5092843;28;20118;-74
2021/03/19 09:51:44;;;;;;;15.52;9.00;;;;;;;6.98;55.75;100178.47;5077975;28;19919;-76
2021/03/19 09:54:28;;;;;;;15.90;8.63;;;;;;;6.75;55.28;100182.16;5101144;28;20036;-78
2021/03/19 09:56:59;;;;;;;;;;;;;;;6.71;53.91;100173.50;5112634;28;20030;-78
2021/03/19 09:59:28;;;;;;;13.50;7.82;;;;;;;6.66;54.76;100172.88;5113215;28;19959;-78
2021/03/19 10:01:55;;;;;;;13.68;7.88;;;;;;;6.17;53.76;100113.25;5098623;28;20024;-77
2021/03/19 10:04:29;;;;;;;16.38;8.48;;;;;;;6.43;55.51;100168.59;5117235;28;20147;-79
2021/03/19 10:06:54;;;;;;;13.43;9.02;;;;;;;6.26;55.30;100177.25;5116824;28;20035;-79
2021/03/19 10:09:23;;;;;;;12.80;8.43;;;;;;;6.12;55.69;100174.38;5098487;28;20531;-77
2021/03/19 10:11:56;;;;;;;12.85;8.50;;;;;;;5.78;55.01;100179.31;5117220;28;20103;-76
2021/03/19 10:14:29;;;;;;;13.60;8.32;;;;;;;5.61;55.64;100186.19;5116718;28;20168;-80
2021/03/19 10:17:17;;;;;;;15.18;8.40;;;;;;;5.54;54.81;100184.72;5116429;28;20474;-80
2021/03/19 10:19:47;;;;;;;13.15;7.95;;;;;;;5.46;56.60;100179.72;5102261;28;20566;-77
2021/03/19 10:22:53;;;;;;;12.05;7.40;;;;;;;5.10;57.94;100186.47;5115692;28;20081;-76
2021/03/19 10:25:34;;;;;;;12.68;7.80;;;;;;;4.87;60.71;100200.56;5093814;28;20036;-76
2021/03/19 10:28:10;;;;;;;13.60;7.93;;;;;;;4.47;62.95;100206.47;5098404;28;20028;-75
2021/03/19 10:30:46;;;;;;;12.30;8.25;;;;;;;4.13;65.75;100212.03;5116541;28;20031;-76
2021/03/19 10:33:32;;;;;;;16.25;9.18;;;;;;;4.21;67.41;100215.28;5116718;28;20137;-78
2021/03/19 10:36:02;;;;;;;12.07;7.85;;;;;;;4.11;67.94;100198.03;5116284;28;20422;-78
2021/03/19 10:38:48;;;;;;;15.90;8.90;;;;;;;3.71;70.34;100215.22;5116449;28;20060;-71
2021/03/19 10:41:31;;;;;;;16.45;9.60;;;;;;;3.69;71.48;100217.06;5116476;28;20046;-70
2021/03/19 10:44:08;;;;;;;15.55;9.68;;;;;;;3.74;72.43;100213.31;5097958;28;20071;-73
2021/03/19 10:46:57;;;;;;;19.80;9.32;;;;;;;4.03;71.65;100211.50;5115968;28;20533;-73
2021/03/19 10:50:02;;;;;;;16.95;9.27;;;;;;;4.11;71.39;100214.75;5116183;28;20080;-75
2021/03/19 10:53:02;;;;;;;16.80;9.68;;;;;;;4.12;72.96;100210.31;5097887;28;20078;-71
2021/03/19 10:55:31;;;;;;;16.58;9.60;;;;;;;4.00;73.92;100188.72;5031865;28;20041;-70
2021/03/19 10:58:22;;;;;;;18.58;10.38;;;;;;;4.42;72.96;100198.69;5095564;28;20040;-75
2021/03/19 11:00:52;;;;;;;15.23;9.00;;;;;;;4.47;71.37;100174.75;5115931;28;20065;-72
2021/03/19 11:03:45;;;;;;;17.58;8.77;;;;;;;5.01;69.71;100176.25;5115839;28;20023;-71
2021/03/19 11:06:34;;;;;;;15.13;9.25;;;;;;;5.35;71.31;100173.16;5115389;28;20536;-71
2021/03/19 11:09:26;;;;;;;15.57;9.13;;;;;;;5.46;70.71;100165.63;5115720;28;20378;-72
2021/03/19 11:12:21;;;;;;;15.30;8.98;;;;;;;5.53;70.35;100168.91;5097906;28;20058;-75
2021/03/19 11:15:00;;;;;;;13.65;8.63;;;;;;;5.79;71.13;100146.63;5114591;28;20393;-76
2021/03/19 11:17:26;;;;;;;13.88;8.55;;;;;;;5.93;68.85;100162.84;5115206;28;20527;-76
2021/03/19 11:20:00;;;;;;;14.40;9.32;;;;;;;5.93;69.53;100166.34;5097404;28;20032;-77
2021/03/19 11:22:46;;;;;;;13.85;9.00;;;;;;;5.66;68.12;100149.81;5115753;28;20027;-76
2021/03/19 11:25:49;;;;;;;14.32;8.75;;;;;;;5.66;69.82;100165.69;5113809;28;20038;-78
2021/03/19 11:28:34;;;;;;;13.90;8.55;;;;;;;5.40;68.12;100163.22;5115320;28;20604;-76
2021/03/19 11:31:28;;;;;;;14.55;8.02;;;;;;;5.33;68.60;100167.94;5115228;28;20031;-78
2021/03/19 11:34:12;;;;;;;14.10;8.38;;;;;;;5.06;69.18;100158.44;5115299;28;20355;-76
2021/03/19 11:37:03;;;;;;;14.38;8.55;;;;;;;4.71;69.45;100155.34;5122492;28;20123;-75
2021/03/19 11:39:40;;;;;;;13.85;8.10;;;;;;;4.73;67.93;100150.00;5122202;28;20081;-76
2021/03/19 11:42:10;;;;;;;17.00;8.57;;;;;;;4.54;69.98;100156.00;5119027;28;20430;-75
2021/03/19 11:44:36;;;;;;;14.77;8.45;;;;;;;4.45;70.95;100156.34;5113760;28;20054;-78
2021/03/19 11:47:22;;;;;;;12.70;8.15;;;;;;;4.45;70.66;100163.41;5113165;28;20040;-72
2021/03/19 11:49:51;;;;;;;14.68;9.70;;;;;;;4.65;72.33;100171.44;5114642;28;20492;-73
2021/03/19 11:52:19;;;;;;;15.20;9.50;;;;;;;4.90;72.61;100160.78;5114933;28;20043;-76
2021/03/19 11:54:46;;;;;;;14.20;8.43;;;;;;;5.23;69.73;100155.13;5114463;28;20034;-74
2021/03/19 11:57:12;;;;;;;15.23;9.25;;;;;;;5.35;69.49;100149.34;5095681;28;20043;-76
2021/03/19 11:59:38;;;;;;;13.25;9.07;;;;;;;5.44;68.54;100143.69;5079665;28;20077;-76
2021/03/19 12:02:25;;;;;;;14.55;8.77;;;;;;;5.55;69.76;100143.25;5114764;28;20051;-75
2021/03/19 12:04:50;;;;;;;14.70;9.13;;;;;;;5.81;68.43;100147.44;5098791;28;20114;-75